Etusivu
METAR-TAF:

METAR-TAF

Lentoasemat :

Brownwood, Texas, Yhdysvallat

Leveyspiiri: 31-48N, Pituuspiiri: 098-57W, korkeus merenpinnasta: 422 m

Tämänhetkinen sää

Tämä raportti tehtiin 36 minuuttia sitten, kello 08.35 UTC
Tuuli 8 kn etelästä
Lämpötila 28°C
Kosteus 42%
Ilmanpaine 1013 hPa
Näkyvyys: 16.1 km
Muutamia pilviä 4800 ft:n korkeudessa
Hajanaisia pilviä 5000 ft:n korkeudessa

METAR: KBWD 140835Z AUTO 18008KT 10SM FEW048 SCT050 28/14 A2992 RMK AO1

Aika: 04:11 (09:11 UTC)


TAF: puuttuu

Säähavainnot ja -ennusteet yli 4000 lentoasemalta (METAR- ja TAF-raportit).

Käytössä olevat sääasemat on merkitty karttaan keltaisilla ja punaisilla pisteillä.

Aseta hiiri pisteen päälle nähdäksesi sääaseman nimen.

Klikkaa sitten nähdäksesi säähavainnot ja -ennusteet.

Kartan vaihtaminen: klikkaa mustalla rastilla varustettuja vihreitä pisteitä, niin voit zoomata sisään; viivalla varustettua vihreää pistettä, niin voit zoomata ulos tai vihreitä nuolia, niin pääset viereisille kartoille.


METAR-TAF: